sensor_id;sensor_type;location;lat;lon;timestamp;P1;durP1;ratioP1;P2;durP2;ratioP2
20381;SDS011;10350;51.280;12.400;2023-02-04T00:01:57;1.90;;;1.80;;
20381;SDS011;10350;51.280;12.400;2023-02-04T00:04:22;5.68;;;1.90;;
20381;SDS011;10350;51.280;12.400;2023-02-04T00:06:48;2.97;;;1.67;;
20381;SDS011;10350;51.280;12.400;2023-02-04T00:09:14;1.40;;;1.40;;
20381;SDS011;10350;51.280;12.400;2023-02-04T00:11:41;1.95;;;1.75;;
20381;SDS011;10350;51.280;12.400;2023-02-04T00:14:06;2.60;;;1.38;;
20381;SDS011;10350;51.280;12.400;2023-02-04T00:16:32;2.25;;;1.90;;
20381;SDS011;10350;51.280;12.400;2023-02-04T00:18:58;1.90;;;1.80;;
20381;SDS011;10350;51.280;12.400;2023-02-04T00:21:24;1.85;;;1.75;;
20381;SDS011;10350;51.280;12.400;2023-02-04T00:23:50;2.13;;;1.92;;
20381;SDS011;10350;51.280;12.400;2023-02-04T00:26:16;2.38;;;2.00;;
20381;SDS011;10350;51.280;12.400;2023-02-04T00:28:42;3.50;;;2.10;;
20381;SDS011;10350;51.280;12.400;2023-02-04T00:31:08;3.28;;;2.25;;
20381;SDS011;10350;51.280;12.400;2023-02-04T00:33:34;5.00;;;2.40;;
20381;SDS011;10350;51.280;12.400;2023-02-04T00:36:00;3.22;;;2.30;;
20381;SDS011;10350;51.280;12.400;2023-02-04T00:38:25;2.10;;;1.90;;
20381;SDS011;10350;51.280;12.400;2023-02-04T00:40:51;5.07;;;3.58;;
20381;SDS011;10350;51.280;12.400;2023-02-04T00:43:17;3.05;;;2.50;;
20381;SDS011;10350;51.280;12.400;2023-02-04T00:45:43;5.47;;;2.83;;
20381;SDS011;10350;51.280;12.400;2023-02-04T00:48:09;3.05;;;2.33;;
20381;SDS011;10350;51.280;12.400;2023-02-04T00:50:35;7.47;;;6.00;;
20381;SDS011;10350;51.280;12.400;2023-02-04T00:55:29;7.68;;;2.65;;
20381;SDS011;10350;51.280;12.400;2023-02-04T00:57:55;3.47;;;2.70;;
20381;SDS011;10350;51.280;12.400;2023-02-04T01:00:21;6.43;;;2.78;;
20381;SDS011;10350;51.280;12.400;2023-02-04T01:02:47;5.53;;;2.20;;
20381;SDS011;10350;51.280;12.400;2023-02-04T01:05:13;2.50;;;2.30;;
20381;SDS011;10350;51.280;12.400;2023-02-04T01:07:39;5.95;;;3.33;;
20381;SDS011;10350;51.280;12.400;2023-02-04T01:10:05;4.38;;;2.65;;
20381;SDS011;10350;51.280;12.400;2023-02-04T01:12:31;3.30;;;2.85;;
20381;SDS011;10350;51.280;12.400;2023-02-04T01:14:56;5.88;;;2.90;;
20381;SDS011;10350;51.280;12.400;2023-02-04T01:17:22;3.03;;;2.83;;
20381;SDS011;10350;51.280;12.400;2023-02-04T01:19:49;5.93;;;2.58;;
20381;SDS011;10350;51.280;12.400;2023-02-04T01:22:14;2.95;;;2.60;;
20381;SDS011;10350;51.280;12.400;2023-02-04T01:24:40;5.18;;;2.63;;
20381;SDS011;10350;51.280;12.400;2023-02-04T01:27:06;6.65;;;2.65;;
20381;SDS011;10350;51.280;12.400;2023-02-04T01:29:32;7.32;;;3.38;;
20381;SDS011;10350;51.280;12.400;2023-02-04T01:31:58;3.42;;;3.13;;
20381;SDS011;10350;51.280;12.400;2023-02-04T01:34:24;4.28;;;2.83;;
20381;SDS011;10350;51.280;12.400;2023-02-04T01:36:50;4.60;;;2.53;;
20381;SDS011;10350;51.280;12.400;2023-02-04T01:39:16;4.68;;;2.70;;
20381;SDS011;10350;51.280;12.400;2023-02-04T01:41:42;4.13;;;3.13;;
20381;SDS011;10350;51.280;12.400;2023-02-04T01:44:08;6.70;;;2.88;;
20381;SDS011;10350;51.280;12.400;2023-02-04T01:46:34;4.60;;;2.78;;
20381;SDS011;10350;51.280;12.400;2023-02-04T01:49:01;3.47;;;2.95;;
20381;SDS011;10350;51.280;12.400;2023-02-04T01:51:27;2.85;;;2.50;;
20381;SDS011;10350;51.280;12.400;2023-02-04T01:53:54;7.75;;;3.30;;
20381;SDS011;10350;51.280;12.400;2023-02-04T01:56:22;3.30;;;3.00;;
20381;SDS011;10350;51.280;12.400;2023-02-04T01:58:50;3.05;;;2.75;;
20381;SDS011;10350;51.280;12.400;2023-02-04T02:01:32;3.70;;;2.90;;
20381;SDS011;10350;51.280;12.400;2023-02-04T02:03:58;4.53;;;2.83;;
20381;SDS011;10350;51.280;12.400;2023-02-04T02:06:24;2.65;;;2.45;;
20381;SDS011;10350;51.280;12.400;2023-02-04T02:08:50;2.72;;;2.53;;
20381;SDS011;10350;51.280;12.400;2023-02-04T02:11:16;3.05;;;2.72;;
20381;SDS011;10350;51.280;12.400;2023-02-04T02:13:42;5.25;;;2.97;;
20381;SDS011;10350;51.280;12.400;2023-02-04T02:16:08;3.17;;;2.45;;
20381;SDS011;10350;51.280;12.400;2023-02-04T02:18:34;3.03;;;2.75;;
20381;SDS011;10350;51.280;12.400;2023-02-04T02:21:01;3.78;;;2.40;;
20381;SDS011;10350;51.280;12.400;2023-02-04T02:26:14;6.97;;;2.80;;
20381;SDS011;10350;51.280;12.400;2023-02-04T02:28:41;11.80;;;2.72;;
20381;SDS011;10350;51.280;12.400;2023-02-04T02:31:07;3.40;;;2.45;;
20381;SDS011;10350;51.280;12.400;2023-02-04T02:33:33;5.30;;;2.88;;
20381;SDS011;10350;51.280;12.400;2023-02-04T02:35:59;2.80;;;2.58;;
20381;SDS011;10350;51.280;12.400;2023-02-04T02:38:25;4.97;;;2.53;;
20381;SDS011;10350;51.280;12.400;2023-02-04T02:40:51;4.22;;;2.30;;
20381;SDS011;10350;51.280;12.400;2023-02-04T02:43:21;3.55;;;2.40;;
20381;SDS011;10350;51.280;12.400;2023-02-04T02:45:48;4.57;;;2.72;;
20381;SDS011;10350;51.280;12.400;2023-02-04T02:48:14;4.07;;;2.22;;
20381;SDS011;10350;51.280;12.400;2023-02-04T02:50:41;3.40;;;2.83;;
20381;SDS011;10350;51.280;12.400;2023-02-04T02:53:11;3.08;;;2.30;;
20381;SDS011;10350;51.280;12.400;2023-02-04T02:55:38;2.47;;;2.28;;
20381;SDS011;10350;51.280;12.400;2023-02-04T02:58:04;2.78;;;2.42;;
20381;SDS011;10350;51.280;12.400;2023-02-04T03:00:30;2.55;;;2.35;;
20381;SDS011;10350;51.280;12.400;2023-02-04T03:02:58;2.25;;;2.08;;
20381;SDS011;10350;51.280;12.400;2023-02-04T03:05:27;4.22;;;2.47;;
20381;SDS011;10350;51.280;12.400;2023-02-04T03:07:54;3.63;;;2.65;;
20381;SDS011;10350;51.280;12.400;2023-02-04T03:10:20;6.10;;;2.65;;
20381;SDS011;10350;51.280;12.400;2023-02-04T03:12:46;2.70;;;2.50;;
20381;SDS011;10350;51.280;12.400;2023-02-04T03:15:12;5.55;;;2.55;;
20381;SDS011;10350;51.280;12.400;2023-02-04T03:17:38;3.25;;;2.60;;
20381;SDS011;10350;51.280;12.400;2023-02-04T03:20:04;2.67;;;2.30;;
20381;SDS011;10350;51.280;12.400;2023-02-04T03:22:31;2.22;;;2.05;;
20381;SDS011;10350;51.280;12.400;2023-02-04T03:24:57;3.72;;;2.00;;
20381;SDS011;10350;51.280;12.400;2023-02-04T03:27:23;2.30;;;2.10;;
20381;SDS011;10350;51.280;12.400;2023-02-04T03:29:49;3.33;;;2.45;;
20381;SDS011;10350;51.280;12.400;2023-02-04T03:32:15;2.15;;;2.05;;
20381;SDS011;10350;51.280;12.400;2023-02-04T03:34:41;2.70;;;2.15;;
20381;SDS011;10350;51.280;12.400;2023-02-04T03:37:07;3.65;;;2.53;;
20381;SDS011;10350;51.280;12.400;2023-02-04T03:39:33;2.78;;;2.58;;
20381;SDS011;10350;51.280;12.400;2023-02-04T03:41:59;2.20;;;2.03;;
20381;SDS011;10350;51.280;12.400;2023-02-04T03:44:25;2.50;;;2.30;;
20381;SDS011;10350;51.280;12.400;2023-02-04T03:46:51;4.72;;;2.22;;
20381;SDS011;10350;51.280;12.400;2023-02-04T03:49:19;3.17;;;2.30;;
20381;SDS011;10350;51.280;12.400;2023-02-04T03:51:45;5.78;;;2.20;;
20381;SDS011;10350;51.280;12.400;2023-02-04T03:54:11;3.92;;;2.30;;
20381;SDS011;10350;51.280;12.400;2023-02-04T03:56:37;2.65;;;2.15;;
20381;SDS011;10350;51.280;12.400;2023-02-04T03:59:03;2.78;;;2.30;;
20381;SDS011;10350;51.280;12.400;2023-02-04T04:01:29;3.03;;;2.70;;
20381;SDS011;10350;51.280;12.400;2023-02-04T04:03:55;3.72;;;2.33;;
20381;SDS011;10350;51.280;12.400;2023-02-04T04:06:21;6.80;;;2.65;;
20381;SDS011;10350;51.280;12.400;2023-02-04T04:08:46;2.88;;;2.20;;
20381;SDS011;10350;51.280;12.400;2023-02-04T04:11:12;2.47;;;2.28;;
20381;SDS011;10350;51.280;12.400;2023-02-04T04:13:38;2.08;;;1.98;;
20381;SDS011;10350;51.280;12.400;2023-02-04T04:16:04;2.90;;;2.15;;
20381;SDS011;10350;51.280;12.400;2023-02-04T04:18:30;6.00;;;2.45;;
20381;SDS011;10350;51.280;12.400;2023-02-04T04:20:57;5.10;;;2.35;;
20381;SDS011;10350;51.280;12.400;2023-02-04T04:23:23;2.10;;;2.00;;
20381;SDS011;10350;51.280;12.400;2023-02-04T04:25:49;2.97;;;2.30;;
20381;SDS011;10350;51.280;12.400;2023-02-04T04:28:14;2.58;;;2.00;;
20381;SDS011;10350;51.280;12.400;2023-02-04T04:30:40;3.83;;;2.17;;
20381;SDS011;10350;51.280;12.400;2023-02-04T04:33:06;2.00;;;1.90;;
20381;SDS011;10350;51.280;12.400;2023-02-04T04:35:32;2.55;;;2.35;;
20381;SDS011;10350;51.280;12.400;2023-02-04T04:37:59;2.60;;;2.00;;
20381;SDS011;10350;51.280;12.400;2023-02-04T04:40:25;3.25;;;2.22;;
20381;SDS011;10350;51.280;12.400;2023-02-04T04:42:51;2.25;;;2.15;;
20381;SDS011;10350;51.280;12.400;2023-02-04T04:45:17;2.38;;;1.88;;
20381;SDS011;10350;51.280;12.400;2023-02-04T04:47:43;2.05;;;1.95;;
20381;SDS011;10350;51.280;12.400;2023-02-04T04:50:09;3.42;;;1.92;;
20381;SDS011;10350;51.280;12.400;2023-02-04T04:52:36;3.88;;;2.20;;
20381;SDS011;10350;51.280;12.400;2023-02-04T04:55:02;1.90;;;1.80;;
20381;SDS011;10350;51.280;12.400;2023-02-04T04:57:28;4.43;;;1.67;;
20381;SDS011;10350;51.280;12.400;2023-02-04T04:59:54;4.13;;;2.15;;
20381;SDS011;10350;51.280;12.400;2023-02-04T05:02:20;2.10;;;2.00;;
20381;SDS011;10350;51.280;12.400;2023-02-04T05:04:46;2.08;;;1.90;;
20381;SDS011;10350;51.280;12.400;2023-02-04T05:07:12;2.85;;;1.75;;
20381;SDS011;10350;51.280;12.400;2023-02-04T05:09:38;1.90;;;1.80;;
20381;SDS011;10350;51.280;12.400;2023-02-04T05:12:04;3.50;;;2.00;;
20381;SDS011;10350;51.280;12.400;2023-02-04T05:14:30;1.80;;;1.70;;
20381;SDS011;10350;51.280;12.400;2023-02-04T05:16:56;4.47;;;2.13;;
20381;SDS011;10350;51.280;12.400;2023-02-04T05:19:22;2.38;;;2.10;;
20381;SDS011;10350;51.280;12.400;2023-02-04T05:21:47;4.65;;;2.10;;
20381;SDS011;10350;51.280;12.400;2023-02-04T05:24:13;2.15;;;1.92;;
20381;SDS011;10350;51.280;12.400;2023-02-04T05:26:39;1.90;;;1.80;;
20381;SDS011;10350;51.280;12.400;2023-02-04T05:29:05;2.42;;;2.00;;
20381;SDS011;10350;51.280;12.400;2023-02-04T05:31:31;2.22;;;2.03;;
20381;SDS011;10350;51.280;12.400;2023-02-04T05:33:58;2.10;;;2.00;;
20381;SDS011;10350;51.280;12.400;2023-02-04T05:36:24;1.90;;;1.80;;
20381;SDS011;10350;51.280;12.400;2023-02-04T05:38:49;2.53;;;1.73;;
20381;SDS011;10350;51.280;12.400;2023-02-04T05:41:15;3.95;;;1.90;;
20381;SDS011;10350;51.280;12.400;2023-02-04T05:43:41;3.25;;;1.75;;
20381;SDS011;10350;51.280;12.400;2023-02-04T05:46:07;2.80;;;1.88;;
20381;SDS011;10350;51.280;12.400;2023-02-04T05:48:33;2.97;;;1.83;;
20381;SDS011;10350;51.280;12.400;2023-02-04T05:50:59;1.98;;;1.50;;
20381;SDS011;10350;51.280;12.400;2023-02-04T05:53:25;2.33;;;1.85;;
20381;SDS011;10350;51.280;12.400;2023-02-04T05:55:51;2.38;;;2.17;;
20381;SDS011;10350;51.280;12.400;2023-02-04T05:58:17;4.75;;;1.80;;
20381;SDS011;10350;51.280;12.400;2023-02-04T06:00:43;1.95;;;1.85;;
20381;SDS011;10350;51.280;12.400;2023-02-04T06:03:09;2.50;;;1.90;;
20381;SDS011;10350;51.280;12.400;2023-02-04T06:05:34;2.10;;;1.83;;
20381;SDS011;10350;51.280;12.400;2023-02-04T06:08:00;2.00;;;1.90;;
20381;SDS011;10350;51.280;12.400;2023-02-04T06:10:26;5.35;;;1.90;;
20381;SDS011;10350;51.280;12.400;2023-02-04T06:12:52;2.00;;;1.90;;
20381;SDS011;10350;51.280;12.400;2023-02-04T06:15:18;2.17;;;1.98;;
20381;SDS011;10350;51.280;12.400;2023-02-04T06:17:44;1.85;;;1.75;;
20381;SDS011;10350;51.280;12.400;2023-02-04T06:20:12;4.60;;;2.28;;
20381;SDS011;10350;51.280;12.400;2023-02-04T06:22:38;2.10;;;2.00;;
20381;SDS011;10350;51.280;12.400;2023-02-04T06:25:04;2.00;;;1.90;;
20381;SDS011;10350;51.280;12.400;2023-02-04T06:27:30;2.55;;;2.00;;
20381;SDS011;10350;51.280;12.400;2023-02-04T06:29:56;2.13;;;1.95;;
20381;SDS011;10350;51.280;12.400;2023-02-04T06:32:22;2.97;;;1.70;;
20381;SDS011;10350;51.280;12.400;2023-02-04T06:34:48;2.20;;;1.48;;
20381;SDS011;10350;51.280;12.400;2023-02-04T06:37:14;1.70;;;1.60;;
20381;SDS011;10350;51.280;12.400;2023-02-04T06:39:41;2.33;;;1.58;;
20381;SDS011;10350;51.280;12.400;2023-02-04T06:42:07;5.78;;;1.90;;
20381;SDS011;10350;51.280;12.400;2023-02-04T06:44:33;3.13;;;1.85;;
20381;SDS011;10350;51.280;12.400;2023-02-04T06:46:59;1.63;;;1.52;;
20381;SDS011;10350;51.280;12.400;2023-02-04T06:49:25;2.15;;;1.80;;
20381;SDS011;10350;51.280;12.400;2023-02-04T06:51:51;2.38;;;1.60;;
20381;SDS011;10350;51.280;12.400;2023-02-04T06:54:19;2.05;;;1.75;;
20381;SDS011;10350;51.280;12.400;2023-02-04T06:56:44;1.88;;;1.73;;
20381;SDS011;10350;51.280;12.400;2023-02-04T06:59:10;3.45;;;1.83;;
20381;SDS011;10350;51.280;12.400;2023-02-04T07:01:36;4.10;;;2.30;;
20381;SDS011;10350;51.280;12.400;2023-02-04T07:04:02;2.60;;;1.58;;
20381;SDS011;10350;51.280;12.400;2023-02-04T07:06:28;6.40;;;2.40;;
20381;SDS011;10350;51.280;12.400;2023-02-04T07:08:54;2.17;;;1.80;;
20381;SDS011;10350;51.280;12.400;2023-02-04T07:11:20;2.75;;;1.92;;
20381;SDS011;10350;51.280;12.400;2023-02-04T07:13:46;2.78;;;1.80;;
20381;SDS011;10350;51.280;12.400;2023-02-04T07:16:12;3.08;;;1.80;;
20381;SDS011;10350;51.280;12.400;2023-02-04T07:18:38;2.92;;;1.90;;
20381;SDS011;10350;51.280;12.400;2023-02-04T07:21:04;2.67;;;1.95;;
20381;SDS011;10350;51.280;12.400;2023-02-04T07:23:33;3.78;;;2.40;;
20381;SDS011;10350;51.280;12.400;2023-02-04T07:25:59;4.43;;;2.28;;
20381;SDS011;10350;51.280;12.400;2023-02-04T07:28:25;3.88;;;2.08;;
20381;SDS011;10350;51.280;12.400;2023-02-04T07:30:51;5.13;;;2.08;;
20381;SDS011;10350;51.280;12.400;2023-02-04T07:33:17;2.63;;;2.10;;
20381;SDS011;10350;51.280;12.400;2023-02-04T07:35:42;4.22;;;2.60;;
20381;SDS011;10350;51.280;12.400;2023-02-04T07:38:08;4.15;;;2.40;;
20381;SDS011;10350;51.280;12.400;2023-02-04T07:40:34;3.75;;;2.38;;
20381;SDS011;10350;51.280;12.400;2023-02-04T07:43:00;3.28;;;2.58;;
20381;SDS011;10350;51.280;12.400;2023-02-04T07:45:26;3.25;;;2.22;;
20381;SDS011;10350;51.280;12.400;2023-02-04T07:47:52;6.32;;;2.35;;
20381;SDS011;10350;51.280;12.400;2023-02-04T07:50:18;3.78;;;2.40;;
20381;SDS011;10350;51.280;12.400;2023-02-04T07:52:44;6.85;;;2.65;;
20381;SDS011;10350;51.280;12.400;2023-02-04T07:55:10;3.47;;;2.22;;
20381;SDS011;10350;51.280;12.400;2023-02-04T07:57:36;3.38;;;2.50;;
20381;SDS011;10350;51.280;12.400;2023-02-04T08:00:02;4.13;;;2.58;;
20381;SDS011;10350;51.280;12.400;2023-02-04T08:02:28;2.80;;;2.10;;
20381;SDS011;10350;51.280;12.400;2023-02-04T08:04:54;4.40;;;2.25;;
20381;SDS011;10350;51.280;12.400;2023-02-04T08:07:20;4.53;;;2.20;;
20381;SDS011;10350;51.280;12.400;2023-02-04T08:09:45;5.28;;;2.30;;
20381;SDS011;10350;51.280;12.400;2023-02-04T08:12:11;5.10;;;2.60;;
20381;SDS011;10350;51.280;12.400;2023-02-04T08:14:37;8.27;;;2.38;;
20381;SDS011;10350;51.280;12.400;2023-02-04T08:17:03;2.50;;;2.30;;
20381;SDS011;10350;51.280;12.400;2023-02-04T08:19:29;2.42;;;2.15;;
20381;SDS011;10350;51.280;12.400;2023-02-04T08:21:55;2.47;;;2.28;;
20381;SDS011;10350;51.280;12.400;2023-02-04T08:24:21;3.83;;;2.60;;
20381;SDS011;10350;51.280;12.400;2023-02-04T08:26:47;5.25;;;2.50;;
20381;SDS011;10350;51.280;12.400;2023-02-04T08:29:13;3.75;;;2.30;;
20381;SDS011;10350;51.280;12.400;2023-02-04T08:31:39;4.85;;;2.30;;
20381;SDS011;10350;51.280;12.400;2023-02-04T08:34:05;2.35;;;2.15;;
20381;SDS011;10350;51.280;12.400;2023-02-04T08:36:31;3.40;;;2.30;;
20381;SDS011;10350;51.280;12.400;2023-02-04T08:38:57;3.38;;;2.20;;
20381;SDS011;10350;51.280;12.400;2023-02-04T08:41:23;6.95;;;2.55;;
20381;SDS011;10350;51.280;12.400;2023-02-04T08:43:49;5.25;;;2.58;;
20381;SDS011;10350;51.280;12.400;2023-02-04T08:46:15;3.90;;;2.72;;
20381;SDS011;10350;51.280;12.400;2023-02-04T08:48:41;6.38;;;2.17;;
20381;SDS011;10350;51.280;12.400;2023-02-04T08:51:07;3.42;;;2.47;;
20381;SDS011;10350;51.280;12.400;2023-02-04T08:53:33;3.47;;;2.70;;
20381;SDS011;10350;51.280;12.400;2023-02-04T08:55:58;5.68;;;2.53;;
20381;SDS011;10350;51.280;12.400;2023-02-04T08:58:24;2.90;;;2.53;;
20381;SDS011;10350;51.280;12.400;2023-02-04T09:00:50;2.58;;;2.35;;
20381;SDS011;10350;51.280;12.400;2023-02-04T09:03:16;6.03;;;2.78;;
20381;SDS011;10350;51.280;12.400;2023-02-04T09:05:42;3.38;;;2.50;;
20381;SDS011;10350;51.280;12.400;2023-02-04T09:08:08;3.03;;;2.80;;
20381;SDS011;10350;51.280;12.400;2023-02-04T09:10:34;3.50;;;2.55;;
20381;SDS011;10350;51.280;12.400;2023-02-04T09:13:00;6.35;;;2.85;;
20381;SDS011;10350;51.280;12.400;2023-02-04T09:15:26;4.05;;;2.60;;
20381;SDS011;10350;51.280;12.400;2023-02-04T09:17:52;3.30;;;3.00;;
20381;SDS011;10350;51.280;12.400;2023-02-04T09:20:25;2.90;;;2.70;;
20381;SDS011;10350;51.280;12.400;2023-02-04T09:22:51;2.90;;;2.70;;
20381;SDS011;10350;51.280;12.400;2023-02-04T09:25:16;3.55;;;2.60;;
20381;SDS011;10350;51.280;12.400;2023-02-04T09:27:42;3.97;;;2.55;;
20381;SDS011;10350;51.280;12.400;2023-02-04T09:30:08;6.28;;;3.72;;
20381;SDS011;10350;51.280;12.400;2023-02-04T09:32:34;4.32;;;2.78;;
20381;SDS011;10350;51.280;12.400;2023-02-04T09:35:00;4.18;;;2.85;;
20381;SDS011;10350;51.280;12.400;2023-02-04T09:37:26;4.80;;;3.28;;
20381;SDS011;10350;51.280;12.400;2023-02-04T09:39:56;3.50;;;3.00;;
20381;SDS011;10350;51.280;12.400;2023-02-04T09:42:22;3.50;;;2.95;;
20381;SDS011;10350;51.280;12.400;2023-02-04T09:44:49;4.40;;;3.15;;
20381;SDS011;10350;51.280;12.400;2023-02-04T09:47:15;6.45;;;3.15;;
20381;SDS011;10350;51.280;12.400;2023-02-04T09:49:43;7.30;;;2.58;;
20381;SDS011;10350;51.280;12.400;2023-02-04T09:52:11;3.25;;;2.92;;
20381;SDS011;10350;51.280;12.400;2023-02-04T09:54:38;5.53;;;3.05;;
20381;SDS011;10350;51.280;12.400;2023-02-04T09:57:11;4.53;;;3.35;;
20381;SDS011;10350;51.280;12.400;2023-02-04T09:59:38;3.15;;;2.80;;
20381;SDS011;10350;51.280;12.400;2023-02-04T10:02:06;4.13;;;3.65;;
20381;SDS011;10350;51.280;12.400;2023-02-04T10:04:39;8.82;;;3.45;;
20381;SDS011;10350;51.280;12.400;2023-02-04T10:07:09;3.78;;;3.47;;
20381;SDS011;10350;51.280;12.400;2023-02-04T10:09:37;4.25;;;3.55;;
20381;SDS011;10350;51.280;12.400;2023-02-04T10:12:03;4.32;;;4.03;;
20381;SDS011;10350;51.280;12.400;2023-02-04T10:14:30;4.63;;;3.90;;
20381;SDS011;10350;51.280;12.400;2023-02-04T10:16:57;8.10;;;3.58;;
20381;SDS011;10350;51.280;12.400;2023-02-04T10:19:23;4.80;;;3.40;;
20381;SDS011;10350;51.280;12.400;2023-02-04T10:21:50;4.47;;;3.40;;
20381;SDS011;10350;51.280;12.400;2023-02-04T10:24:17;5.35;;;3.20;;
20381;SDS011;10350;51.280;12.400;2023-02-04T10:26:44;3.30;;;3.08;;
20381;SDS011;10350;51.280;12.400;2023-02-04T10:29:14;3.33;;;3.13;;
20381;SDS011;10350;51.280;12.400;2023-02-04T10:31:41;4.80;;;3.10;;
20381;SDS011;10350;51.280;12.400;2023-02-04T10:34:18;4.75;;;3.65;;
20381;SDS011;10350;51.280;12.400;2023-02-04T10:36:49;4.82;;;3.22;;
20381;SDS011;10350;51.280;12.400;2023-02-04T10:41:48;3.20;;;2.90;;
20381;SDS011;10350;51.280;12.400;2023-02-04T10:44:15;3.70;;;3.40;;
20381;SDS011;10350;51.280;12.400;2023-02-04T10:46:41;3.33;;;3.13;;
20381;SDS011;10350;51.280;12.400;2023-02-04T10:49:15;4.95;;;4.38;;
20381;SDS011;10350;51.280;12.400;2023-02-04T10:51:41;3.63;;;3.33;;
20381;SDS011;10350;51.280;12.400;2023-02-04T10:54:09;3.50;;;3.20;;
20381;SDS011;10350;51.280;12.400;2023-02-04T10:57:10;3.38;;;3.10;;
20381;SDS011;10350;51.280;12.400;2023-02-04T10:59:38;3.33;;;3.03;;
20381;SDS011;10350;51.280;12.400;2023-02-04T11:04:49;4.28;;;3.88;;
20381;SDS011;10350;51.280;12.400;2023-02-04T11:07:15;3.40;;;3.20;;
20381;SDS011;10350;51.280;12.400;2023-02-04T11:09:40;3.67;;;3.38;;
20381;SDS011;10350;51.280;12.400;2023-02-04T11:14:55;3.05;;;2.83;;
20381;SDS011;10350;51.280;12.400;2023-02-04T11:17:27;4.93;;;3.20;;
20381;SDS011;10350;51.280;12.400;2023-02-04T11:19:54;4.13;;;3.00;;
20381;SDS011;10350;51.280;12.400;2023-02-04T11:22:22;3.47;;;3.25;;
20381;SDS011;10350;51.280;12.400;2023-02-04T11:24:49;5.65;;;3.08;;
20381;SDS011;10350;51.280;12.400;2023-02-04T11:27:35;3.67;;;3.25;;
20381;SDS011;10350;51.280;12.400;2023-02-04T11:30:05;3.22;;;2.92;;
20381;SDS011;10350;51.280;12.400;2023-02-04T11:32:32;3.50;;;3.20;;
20381;SDS011;10350;51.280;12.400;2023-02-04T11:39:57;6.13;;;3.53;;
20381;SDS011;10350;51.280;12.400;2023-02-04T11:42:37;5.13;;;3.47;;
20381;SDS011;10350;51.280;12.400;2023-02-04T11:45:11;4.45;;;3.05;;
20381;SDS011;10350;51.280;12.400;2023-02-04T11:47:37;4.65;;;3.08;;
20381;SDS011;10350;51.280;12.400;2023-02-04T11:50:53;3.63;;;3.33;;
20381;SDS011;10350;51.280;12.400;2023-02-04T11:52:50;3.22;;;2.90;;
20381;SDS011;10350;51.280;12.400;2023-02-04T11:55:16;3.50;;;3.28;;
20381;SDS011;10350;51.280;12.400;2023-02-04T11:57:43;4.63;;;2.97;;
20381;SDS011;10350;51.280;12.400;2023-02-04T12:00:16;3.78;;;2.80;;
20381;SDS011;10350;51.280;12.400;2023-02-04T12:02:46;4.20;;;3.03;;
20381;SDS011;10350;51.280;12.400;2023-02-04T12:05:13;3.40;;;3.10;;
20381;SDS011;10350;51.280;12.400;2023-02-04T12:07:40;3.25;;;3.05;;
20381;SDS011;10350;51.280;12.400;2023-02-04T12:10:10;4.45;;;3.80;;
20381;SDS011;10350;51.280;12.400;2023-02-04T12:12:41;4.80;;;3.22;;
20381;SDS011;10350;51.280;12.400;2023-02-04T12:15:20;3.90;;;2.88;;
20381;SDS011;10350;51.280;12.400;2023-02-04T12:17:59;4.30;;;3.20;;
20381;SDS011;10350;51.280;12.400;2023-02-04T12:20:25;3.03;;;2.83;;
20381;SDS011;10350;51.280;12.400;2023-02-04T12:22:51;3.95;;;3.20;;
20381;SDS011;10350;51.280;12.400;2023-02-04T12:25:17;3.75;;;3.33;;
20381;SDS011;10350;51.280;12.400;2023-02-04T12:27:44;4.82;;;2.70;;
20381;SDS011;10350;51.280;12.400;2023-02-04T12:30:10;6.03;;;2.83;;
20381;SDS011;10350;51.280;12.400;2023-02-04T12:32:36;2.72;;;2.50;;
20381;SDS011;10350;51.280;12.400;2023-02-04T12:35:02;2.75;;;2.60;;
20381;SDS011;10350;51.280;12.400;2023-02-04T12:37:28;3.00;;;2.75;;
20381;SDS011;10350;51.280;12.400;2023-02-04T12:39:54;3.53;;;3.15;;
20381;SDS011;10350;51.280;12.400;2023-02-04T12:42:20;3.40;;;2.92;;
20381;SDS011;10350;51.280;12.400;2023-02-04T12:44:46;4.85;;;3.15;;
20381;SDS011;10350;51.280;12.400;2023-02-04T12:47:12;3.30;;;3.10;;
20381;SDS011;10350;51.280;12.400;2023-02-04T12:49:38;4.90;;;2.58;;
20381;SDS011;10350;51.280;12.400;2023-02-04T12:52:04;3.72;;;3.15;;
20381;SDS011;10350;51.280;12.400;2023-02-04T12:54:30;3.40;;;3.10;;
20381;SDS011;10350;51.280;12.400;2023-02-04T12:56:56;3.00;;;2.75;;
20381;SDS011;10350;51.280;12.400;2023-02-04T12:59:22;5.13;;;3.05;;
20381;SDS011;10350;51.280;12.400;2023-02-04T13:01:49;4.32;;;3.40;;
20381;SDS011;10350;51.280;12.400;2023-02-04T13:04:15;7.88;;;3.30;;
20381;SDS011;10350;51.280;12.400;2023-02-04T13:06:42;4.25;;;3.95;;
20381;SDS011;10350;51.280;12.400;2023-02-04T13:09:11;4.70;;;3.22;;
20381;SDS011;10350;51.280;12.400;2023-02-04T13:11:37;5.40;;;3.28;;
20381;SDS011;10350;51.280;12.400;2023-02-04T13:14:03;3.03;;;2.83;;
20381;SDS011;10350;51.280;12.400;2023-02-04T13:16:29;5.03;;;3.38;;
20381;SDS011;10350;51.280;12.400;2023-02-04T13:18:55;3.17;;;2.83;;
20381;SDS011;10350;51.280;12.400;2023-02-04T13:21:21;4.25;;;2.55;;
20381;SDS011;10350;51.280;12.400;2023-02-04T13:23:47;3.80;;;2.97;;
20381;SDS011;10350;51.280;12.400;2023-02-04T13:26:13;4.13;;;3.10;;
20381;SDS011;10350;51.280;12.400;2023-02-04T13:28:39;5.05;;;3.30;;
20381;SDS011;10350;51.280;12.400;2023-02-04T13:31:05;3.85;;;3.17;;
20381;SDS011;10350;51.280;12.400;2023-02-04T13:33:31;5.90;;;3.35;;
20381;SDS011;10350;51.280;12.400;2023-02-04T13:35:57;3.63;;;3.33;;
20381;SDS011;10350;51.280;12.400;2023-02-04T13:38:23;5.85;;;3.55;;
20381;SDS011;10350;51.280;12.400;2023-02-04T13:40:50;3.38;;;3.08;;
20381;SDS011;10350;51.280;12.400;2023-02-04T13:43:16;4.15;;;3.20;;
20381;SDS011;10350;51.280;12.400;2023-02-04T13:45:43;5.60;;;4.90;;
20381;SDS011;10350;51.280;12.400;2023-02-04T13:48:12;3.25;;;3.03;;
20381;SDS011;10350;51.280;12.400;2023-02-04T13:50:38;5.05;;;3.08;;
20381;SDS011;10350;51.280;12.400;2023-02-04T13:53:04;3.08;;;2.85;;
20381;SDS011;10350;51.280;12.400;2023-02-04T13:55:30;6.55;;;2.97;;
20381;SDS011;10350;51.280;12.400;2023-02-04T13:57:56;3.80;;;2.85;;
20381;SDS011;10350;51.280;12.400;2023-02-04T14:00:22;5.10;;;3.15;;
20381;SDS011;10350;51.280;12.400;2023-02-04T14:02:48;5.78;;;3.03;;
20381;SDS011;10350;51.280;12.400;2023-02-04T14:05:14;2.92;;;2.65;;
20381;SDS011;10350;51.280;12.400;2023-02-04T14:07:40;2.72;;;2.20;;
20381;SDS011;10350;51.280;12.400;2023-02-04T14:10:06;2.65;;;2.45;;
20381;SDS011;10350;51.280;12.400;2023-02-04T14:12:32;5.00;;;2.58;;
20381;SDS011;10350;51.280;12.400;2023-02-04T14:14:58;4.57;;;2.70;;
20381;SDS011;10350;51.280;12.400;2023-02-04T14:17:24;2.85;;;2.65;;
20381;SDS011;10350;51.280;12.400;2023-02-04T14:19:50;2.65;;;2.20;;
20381;SDS011;10350;51.280;12.400;2023-02-04T14:22:16;4.13;;;2.92;;
20381;SDS011;10350;51.280;12.400;2023-02-04T14:24:42;4.20;;;3.17;;
20381;SDS011;10350;51.280;12.400;2023-02-04T14:27:09;2.90;;;2.70;;
20381;SDS011;10350;51.280;12.400;2023-02-04T14:29:35;5.20;;;3.00;;
20381;SDS011;10350;51.280;12.400;2023-02-04T14:32:01;2.90;;;2.70;;
20381;SDS011;10350;51.280;12.400;2023-02-04T14:34:27;2.97;;;2.75;;
20381;SDS011;10350;51.280;12.400;2023-02-04T14:36:52;4.57;;;2.67;;
20381;SDS011;10350;51.280;12.400;2023-02-04T14:39:18;3.50;;;2.88;;
20381;SDS011;10350;51.280;12.400;2023-02-04T14:41:45;3.15;;;2.55;;
20381;SDS011;10350;51.280;12.400;2023-02-04T14:44:10;2.80;;;2.60;;
20381;SDS011;10350;51.280;12.400;2023-02-04T14:46:37;3.90;;;3.10;;
20381;SDS011;10350;51.280;12.400;2023-02-04T14:49:05;6.05;;;2.92;;